Time;durP1;ratioP1;P1;durP2;ratioP2;P2;SDS_P1;SDS_P2;PMS_P1;PMS_P2;Temp;Humidity;BMP_temperature;BMP_pressure;BME280_temperature;BME280_humidity;BME280_pressure;Samples;Min_cycle;Max_cycle;Signal;HPM_P1;HPM_P2
2023/02/04 00:01:04;;;;;;;9.30;3.33;;;;;;;;;;4958151;29;20501;-90
2023/02/04 00:03:30;;;;;;;10.25;5.72;;;;;;;;;;4959357;28;20024;-91
2023/02/04 00:05:56;;;;;;;8.07;3.88;;;;;;;;;;4969236;28;20022;-91
2023/02/04 00:08:22;;;;;;;9.68;4.25;;;;;;;;;;4979091;28;20031;-90
2023/02/04 00:10:48;;;;;;;6.93;3.22;;;;;;;;;;4982006;28;20033;-91
2023/02/04 00:13:14;;;;;;;9.43;2.40;;;;;;;;;;4980743;28;20653;-91
2023/02/04 00:15:40;;;;;;;6.22;1.90;;;;;;;;;;4982067;28;20193;-90
2023/02/04 00:21:10;;;;;;;8.45;3.00;;;;;;;;;;4981588;28;20030;-91
2023/02/04 00:23:36;;;;;;;5.15;1.77;;;;;;;;;;4981450;28;20119;-91
2023/02/04 00:26:03;;;;;;;6.13;1.90;;;;;;;;;;4980596;28;20111;-91
2023/02/04 00:28:29;;;;;;;5.47;1.50;;;;;;;;;;4980489;28;20066;-91
2023/02/04 00:30:55;;;;;;;6.32;1.58;;;;;;;;;;4980833;28;20066;-91
2023/02/04 00:33:21;;;;;;;3.22;1.70;;;;;;;;;;4980680;28;20049;-90
2023/02/04 00:35:47;;;;;;;6.80;2.10;;;;;;;;;;4973219;28;20027;-91
2023/02/04 00:38:13;;;;;;;6.43;1.92;;;;;;;;;;4962118;28;20027;-92
2023/02/04 00:40:39;;;;;;;7.85;2.17;;;;;;;;;;4961066;29;20054;-90
2023/02/04 00:43:05;;;;;;;6.63;2.40;;;;;;;;;;4961037;29;20058;-91
2023/02/04 00:45:31;;;;;;;7.55;2.45;;;;;;;;;;4962343;28;20106;-91
2023/02/04 00:51:01;;;;;;;9.93;2.90;;;;;;;;;;4962167;29;20150;-91
2023/02/04 00:53:27;;;;;;;5.45;1.48;;;;;;;;;;4962099;28;20034;-91
2023/02/04 00:55:53;;;;;;;6.22;1.60;;;;;;;;;;4961851;28;20054;-91
2023/02/04 00:58:19;;;;;;;10.35;1.50;;;;;;;;;;4961753;28;20055;-92
2023/02/04 01:00:45;;;;;;;8.63;1.88;;;;;;;;;;4962110;28;20031;-91
2023/02/04 01:03:11;;;;;;;5.90;1.40;;;;;;;;;;4960646;29;20027;-91
2023/02/04 01:05:37;;;;;;;7.90;1.70;;;;;;;;;;4961877;28;20035;-90
2023/02/04 01:08:03;;;;;;;5.18;1.75;;;;;;;;;;4961943;28;20075;-91
2023/02/04 01:10:30;;;;;;;6.43;1.55;;;;;;;;;;4961709;28;20422;-92
2023/02/04 01:12:56;;;;;;;8.73;2.00;;;;;;;;;;4960541;29;20039;-91
2023/02/04 01:15:22;;;;;;;7.70;1.55;;;;;;;;;;4972559;28;20131;-91
2023/02/04 01:23:55;;;;;;;5.40;1.80;;;;;;;;;;4980781;28;20041;-91
2023/02/04 01:26:21;;;;;;;9.15;1.80;;;;;;;;;;4980811;28;20030;-89
2023/02/04 01:28:47;;;;;;;7.40;1.90;;;;;;;;;;4979418;28;20045;-90
2023/02/04 01:31:14;;;;;;;11.45;2.00;;;;;;;;;;4979584;28;20038;-90
2023/02/04 01:33:40;;;;;;;9.23;1.65;;;;;;;;;;4979461;28;20400;-92
2023/02/04 01:36:06;;;;;;;7.88;1.58;;;;;;;;;;4979433;28;20073;-91
2023/02/04 01:38:32;;;;;;;12.43;2.00;;;;;;;;;;4980556;28;20019;-91
2023/02/04 01:40:59;;;;;;;6.93;2.42;;;;;;;;;;4980232;28;20068;-91
2023/02/04 01:43:25;;;;;;;10.07;2.20;;;;;;;;;;4980430;28;20030;-92
2023/02/04 01:45:52;;;;;;;8.05;1.67;;;;;;;;;;4980530;28;20054;-91
2023/02/04 01:48:21;;;;;;;5.85;1.83;;;;;;;;;;4979187;28;20031;-91
2023/02/04 01:50:48;;;;;;;5.82;1.70;;;;;;;;;;4980461;28;20023;-92
2023/02/04 01:53:17;;;;;;;6.13;1.23;;;;;;;;;;4979947;28;20035;-91
2023/02/04 01:55:43;;;;;;;6.32;1.20;;;;;;;;;;4980160;28;20027;-92
2023/02/04 01:58:11;;;;;;;10.10;1.83;;;;;;;;;;4979952;28;20031;-91
2023/02/04 02:00:38;;;;;;;8.13;1.88;;;;;;;;;;4979774;28;20309;-91
2023/02/04 02:03:05;;;;;;;7.72;1.90;;;;;;;;;;4980160;28;20038;-91
2023/02/04 02:05:52;;;;;;;6.78;1.60;;;;;;;;;;4980320;28;20081;-91
2023/02/04 02:08:19;;;;;;;6.95;1.60;;;;;;;;;;4979720;28;20046;-91
2023/02/04 02:10:46;;;;;;;4.75;1.27;;;;;;;;;;4979967;28;20411;-93
2023/02/04 02:13:13;;;;;;;6.22;1.30;;;;;;;;;;4978874;28;20027;-92
2023/02/04 02:15:39;;;;;;;4.57;1.45;;;;;;;;;;4979513;28;20062;-92
2023/02/04 02:18:06;;;;;;;7.43;1.77;;;;;;;;;;4979630;28;20018;-92
2023/02/04 02:20:32;;;;;;;9.77;1.92;;;;;;;;;;4978475;28;20030;-91
2023/02/04 02:23:04;;;;;;;3.67;1.38;;;;;;;;;;4979658;28;20026;-92
2023/02/04 02:25:30;;;;;;;;;;;;;;;;;;4980106;28;20049;-91
2023/02/04 02:27:57;;;;;;;4.13;1.30;;;;;;;;;;4979514;28;20297;-90
2023/02/04 02:30:23;;;;;;;6.18;1.83;;;;;;;;;;4977898;28;20055;-90
2023/02/04 02:32:50;;;;;;;6.60;2.33;;;;;;;;;;4979346;28;20109;-91
2023/02/04 02:38:20;;;;;;;6.75;2.10;;;;;;;;;;4979252;28;20322;-91
2023/02/04 02:40:48;;;;;;;7.45;2.58;;;;;;;;;;4979464;28;20054;-91
2023/02/04 02:43:21;;;;;;;9.63;2.15;;;;;;;;;;4978298;28;20038;-91
2023/02/04 02:45:47;;;;;;;;;;;;;;;;;;4979751;28;20026;-90
2023/02/04 02:51:16;;;;;;;9.90;3.20;;;;;;;;;;4940711;29;20063;-92
2023/02/04 02:53:42;;;;;;;8.20;2.58;;;;;;;;;;4939656;29;20032;-90
2023/02/04 02:56:08;;;;;;;9.77;3.15;;;;;;;;;;4940409;29;20028;-91
2023/02/04 02:58:35;;;;;;;6.80;2.70;;;;;;;;;;4956433;28;20031;-91
2023/02/04 03:01:02;;;;;;;9.57;2.15;;;;;;;;;;4978707;28;20031;-90
2023/02/04 03:06:46;;;;;;;6.60;1.90;;;;;;;;;;4977443;28;20074;-90
2023/02/04 03:09:12;;;;;;;7.50;1.80;;;;;;;;;;4979251;28;20121;-90
2023/02/04 03:11:38;;;;;;;8.95;2.28;;;;;;;;;;4979237;28;20110;-91
2023/02/04 03:14:04;;;;;;;8.68;2.40;;;;;;;;;;4978701;28;20031;-91
2023/02/04 03:16:32;;;;;;;10.27;2.80;;;;;;;;;;4978619;28;20066;-92
2023/02/04 03:22:02;;;;;;;9.48;2.80;;;;;;;;;;4978934;28;20029;-91
2023/02/04 03:24:29;;;;;;;6.97;1.80;;;;;;;;;;4978751;28;20022;-91
2023/02/04 03:26:55;;;;;;;10.65;3.13;;;;;;;;;;4970604;28;20131;-91
2023/02/04 03:29:21;;;;;;;8.00;2.97;;;;;;;;;;4959079;28;20059;-91
2023/02/04 03:31:47;;;;;;;12.60;2.60;;;;;;;;;;4958435;29;20047;-91
2023/02/04 03:34:13;;;;;;;8.23;2.50;;;;;;;;;;4958367;29;20031;-91
2023/02/04 03:36:40;;;;;;;9.15;2.45;;;;;;;;;;4959289;28;20532;-92
2023/02/04 03:39:06;;;;;;;14.38;2.92;;;;;;;;;;4958426;28;20031;-91
2023/02/04 03:41:32;;;;;;;10.10;3.00;;;;;;;;;;4959908;28;20055;-92
2023/02/04 03:43:58;;;;;;;9.13;2.55;;;;;;;;;;4962982;28;20070;-90
2023/02/04 03:46:24;;;;;;;6.00;2.50;;;;;;;;;;4961695;29;20027;-91
2023/02/04 03:48:50;;;;;;;7.43;1.95;;;;;;;;;;4962961;28;20027;-91
2023/02/04 03:51:17;;;;;;;9.52;3.20;;;;;;;;;;4963198;28;20043;-91
2023/02/04 03:53:43;;;;;;;10.63;2.75;;;;;;;;;;4962904;28;20418;-92
2023/02/04 03:56:09;;;;;;;13.80;3.00;;;;;;;;;;4970677;28;20336;-93
2023/02/04 03:58:35;;;;;;;5.70;2.65;;;;;;;;;;4982472;28;20325;-92
2023/02/04 04:01:01;;;;;;;6.88;2.40;;;;;;;;;;4981313;28;20035;-92
2023/02/04 04:03:27;;;;;;;11.10;3.80;;;;;;;;;;4981467;28;20035;-91
2023/02/04 04:05:53;;;;;;;12.30;2.60;;;;;;;;;;4982078;28;20057;-91
2023/02/04 04:08:19;;;;;;;11.57;2.50;;;;;;;;;;4981037;28;20042;-90
2023/02/04 04:10:45;;;;;;;6.82;1.85;;;;;;;;;;4981983;28;20027;-90
2023/02/04 04:13:12;;;;;;;8.70;2.15;;;;;;;;;;4981949;28;20397;-90
2023/02/04 04:15:38;;;;;;;7.05;2.42;;;;;;;;;;4981845;28;20034;-89
2023/02/04 04:18:04;;;;;;;5.95;2.15;;;;;;;;;;4981041;28;20022;-90
2023/02/04 04:20:30;;;;;;;6.00;2.35;;;;;;;;;;4981744;28;20038;-90
2023/02/04 04:22:56;;;;;;;5.10;1.83;;;;;;;;;;4980850;28;20354;-90
2023/02/04 04:25:22;;;;;;;7.90;1.90;;;;;;;;;;4981381;28;20030;-90
2023/02/04 04:27:48;;;;;;;5.63;1.25;;;;;;;;;;4980686;28;20030;-90
2023/02/04 04:30:14;;;;;;;4.90;1.30;;;;;;;;;;4981268;28;20051;-91
2023/02/04 04:32:40;;;;;;;6.68;1.40;;;;;;;;;;4981882;28;20035;-91
2023/02/04 04:35:07;;;;;;;10.65;1.70;;;;;;;;;;4981926;28;20023;-90
2023/02/04 04:37:34;;;;;;;5.45;1.30;;;;;;;;;;4981288;28;20325;-91
2023/02/04 04:40:00;;;;;;;7.82;1.75;;;;;;;;;;4981101;28;20035;-90
2023/02/04 04:42:26;;;;;;;14.40;3.75;;;;;;;;;;4981600;28;20027;-90
2023/02/04 04:44:52;;;;;;;10.35;3.00;;;;;;;;;;4980909;28;20031;-90
2023/02/04 04:47:18;;;;;;;9.85;2.50;;;;;;;;;;4978551;28;20046;-90
2023/02/04 04:49:44;;;;;;;14.73;2.85;;;;;;;;;;4980367;28;20082;-90
2023/02/04 04:52:10;;;;;;;8.23;2.78;;;;;;;;;;4981408;28;20035;-91
2023/02/04 04:54:36;;;;;;;7.45;3.17;;;;;;;;;;4980957;28;20019;-90
2023/02/04 04:57:03;;;;;;;6.80;2.35;;;;;;;;;;4980925;28;20066;-92
2023/02/04 04:59:29;;;;;;;5.40;2.17;;;;;;;;;;4980944;28;20038;-91
2023/02/04 05:01:55;;;;;;;6.15;1.50;;;;;;;;;;4981336;28;20046;-92
2023/02/04 05:04:21;;;;;;;5.38;1.80;;;;;;;;;;4980927;28;20053;-90
2023/02/04 05:06:47;;;;;;;7.43;1.60;;;;;;;;;;4979756;28;20030;-90
2023/02/04 05:09:15;;;;;;;6.68;2.22;;;;;;;;;;4980851;28;20023;-89
2023/02/04 05:11:41;;;;;;;6.00;2.20;;;;;;;;;;4979991;28;20195;-89
2023/02/04 05:14:07;;;;;;;8.57;1.60;;;;;;;;;;4981227;28;20105;-90
2023/02/04 05:16:33;;;;;;;8.80;1.48;;;;;;;;;;4979550;28;20018;-90
2023/02/04 05:22:02;;;;;;;7.55;2.67;;;;;;;;;;4980873;28;20025;-90
2023/02/04 05:24:28;;;;;;;6.63;2.97;;;;;;;;;;4980977;28;20369;-90
2023/02/04 05:26:55;;;;;;;7.18;2.58;;;;;;;;;;4979379;28;20022;-90
2023/02/04 05:29:21;;;;;;;10.55;5.88;;;;;;;;;;4980121;28;20440;-90
2023/02/04 05:31:47;;;;;;;8.07;3.35;;;;;;;;;;4980964;28;20042;-90
2023/02/04 05:37:19;;;;;;;6.82;2.97;;;;;;;;;;4980507;28;20045;-90
2023/02/04 05:39:46;;;;;;;10.48;3.45;;;;;;;;;;4980599;28;20035;-90
2023/02/04 05:42:12;;;;;;;3.72;1.52;;;;;;;;;;4980688;28;20050;-90
2023/02/04 05:44:38;;;;;;;6.60;2.50;;;;;;;;;;4980203;28;20038;-91
2023/02/04 05:47:05;;;;;;;6.15;2.25;;;;;;;;;;4979204;28;20042;-92
2023/02/04 05:55:38;;;;;;;4.53;1.90;;;;;;;;;;4980211;28;20080;-91
2023/02/04 05:58:04;;;;;;;6.63;2.33;;;;;;;;;;4980177;28;20022;-92
2023/02/04 06:00:30;;;;;;;6.03;2.58;;;;;;;;;;4979408;28;20341;-92
2023/02/04 06:02:56;;;;;;;5.78;2.08;;;;;;;;;;4979043;28;20405;-91
2023/02/04 06:08:32;;;;;;;6.22;1.88;;;;;;;;;;4980408;28;20034;-93
2023/02/04 06:10:58;;;;;;;8.25;1.55;;;;;;;;;;4979080;28;20121;-91
2023/02/04 06:13:24;;;;;;;5.20;2.15;;;;;;;;;;4979702;28;20031;-91
2023/02/04 06:15:50;;;;;;;8.95;3.92;;;;;;;;;;4978790;28;20070;-90
2023/02/04 06:18:16;;;;;;;6.07;2.17;;;;;;;;;;4978909;28;20034;-90
2023/02/04 06:20:42;;;;;;;4.13;2.03;;;;;;;;;;4979502;28;20063;-89
2023/02/04 06:23:08;;;;;;;4.30;1.70;;;;;;;;;;4979413;28;20024;-91
2023/02/04 06:25:34;;;;;;;4.35;1.48;;;;;;;;;;4979407;28;20350;-90
2023/02/04 06:28:00;;;;;;;4.45;1.27;;;;;;;;;;4978673;28;20038;-92
2023/02/04 06:30:26;;;;;;;5.43;1.45;;;;;;;;;;4979315;28;20055;-90
2023/02/04 06:32:52;;;;;;;4.90;1.55;;;;;;;;;;4970583;28;20325;-90
2023/02/04 06:38:22;;;;;;;4.95;1.65;;;;;;;;;;4960174;29;20030;-90
2023/02/04 06:40:52;;;;;;;4.63;1.10;;;;;;;;;;4959049;29;20118;-91
2023/02/04 06:43:18;;;;;;;5.78;1.13;;;;;;;;;;4959975;28;20106;-89
2023/02/04 06:45:44;;;;;;;3.83;1.55;;;;;;;;;;4960321;28;20027;-90
2023/02/04 06:48:10;;;;;;;8.95;3.65;;;;;;;;;;4960096;28;20068;-90
2023/02/04 06:50:37;;;;;;;4.00;1.55;;;;;;;;;;4959680;28;20106;-90
2023/02/04 06:53:03;;;;;;;8.23;2.22;;;;;;;;;;4959884;28;20057;-90
2023/02/04 06:55:29;;;;;;;5.03;1.63;;;;;;;;;;4959863;28;20023;-90
2023/02/04 06:57:55;;;;;;;6.43;2.30;;;;;;;;;;4959570;28;20035;-90
2023/02/04 07:00:21;;;;;;;8.50;1.73;;;;;;;;;;4959721;28;20031;-89
2023/02/04 07:02:47;;;;;;;7.68;2.08;;;;;;;;;;4940864;29;20047;-90
2023/02/04 07:05:13;;;;;;;9.93;3.90;;;;;;;;;;4955719;29;20035;-90
2023/02/04 07:07:39;;;;;;;7.05;3.00;;;;;;;;;;4940495;29;20051;-91
2023/02/04 07:10:05;;;;;;;7.25;3.17;;;;;;;;;;4955899;29;20325;-92
2023/02/04 07:12:31;;;;;;;5.88;2.42;;;;;;;;;;4958267;28;20035;-93
2023/02/04 07:14:58;;;;;;;11.32;4.25;;;;;;;;;;4958571;29;20023;-90
2023/02/04 07:17:24;;;;;;;6.47;2.88;;;;;;;;;;4959150;28;20027;-91
2023/02/04 07:19:50;;;;;;;8.25;3.38;;;;;;;;;;4958618;29;20414;-90
2023/02/04 07:22:16;;;;;;;9.75;4.45;;;;;;;;;;4958766;28;20047;-90
2023/02/04 07:24:42;;;;;;;15.40;7.35;;;;;;;;;;4959600;28;20038;-91
2023/02/04 07:27:08;;;;;;;14.52;6.28;;;;;;;;;;4958317;29;20024;-90
2023/02/04 07:29:34;;;;;;;10.77;5.40;;;;;;;;;;4959169;28;20143;-90
2023/02/04 07:32:00;;;;;;;12.48;4.63;;;;;;;;;;4959290;28;20031;-91
2023/02/04 07:34:26;;;;;;;11.13;3.78;;;;;;;;;;4959105;28;20094;-92
2023/02/04 07:36:52;;;;;;;11.05;3.92;;;;;;;;;;4958906;28;20031;-92
2023/02/04 07:39:18;;;;;;;10.43;4.00;;;;;;;;;;4958327;29;20429;-93
2023/02/04 07:41:44;;;;;;;14.98;3.83;;;;;;;;;;4958999;28;20026;-92
2023/02/04 07:44:11;;;;;;;19.02;9.32;;;;;;;;;;4958183;29;20087;-92
2023/02/04 07:46:37;;;;;;;11.48;5.47;;;;;;;;;;4962892;28;20023;-90
2023/02/04 07:49:03;;;;;;;12.73;5.15;;;;;;;;;;4942367;28;20031;-90
2023/02/04 07:51:29;;;;;;;13.90;5.13;;;;;;;;;;4939263;29;20027;-90
2023/02/04 07:53:55;;;;;;;12.35;4.53;;;;;;;;;;4959138;28;20035;-91
2023/02/04 07:56:21;;;;;;;15.93;6.38;;;;;;;;;;4958195;29;20038;-90
2023/02/04 07:58:48;;;;;;;18.95;9.10;;;;;;;;;;4959506;28;20370;-90
2023/02/04 08:01:14;;;;;;;23.98;9.10;;;;;;;;;;4958894;28;20033;-89
2023/02/04 08:03:41;;;;;;;20.30;7.53;;;;;;;;;;4963980;28;20019;-89
2023/02/04 08:06:07;;;;;;;15.15;6.68;;;;;;;;;;4964951;28;20036;-89
2023/02/04 08:08:34;;;;;;;13.07;6.30;;;;;;;;;;4958450;29;20031;-92
2023/02/04 08:11:00;;;;;;;8.75;3.80;;;;;;;;;;4974016;28;20449;-90
2023/02/04 08:13:26;;;;;;;4.75;1.50;;;;;;;;;;4971499;28;20027;-92
2023/02/04 08:15:52;;;;;;;9.63;2.53;;;;;;;;;;4975989;28;20123;-89
2023/02/04 08:18:18;;;;;;;6.65;3.30;;;;;;;;;;4977024;28;20026;-89
2023/02/04 08:20:44;;;;;;;4.72;1.85;;;;;;;;;;4978117;28;20031;-90
2023/02/04 08:23:10;;;;;;;3.15;1.83;;;;;;;;;;4978227;28;20118;-91
2023/02/04 08:25:36;;;;;;;6.90;2.30;;;;;;;;;;4977188;28;20488;-91
2023/02/04 08:28:02;;;;;;;6.72;2.15;;;;;;;;;;4977211;28;20402;-91
2023/02/04 08:30:28;;;;;;;7.45;3.45;;;;;;;;;;4979909;28;20074;-92
2023/02/04 08:32:54;;;;;;;4.18;2.30;;;;;;;;;;4981839;28;20030;-90
2023/02/04 08:35:20;;;;;;;4.25;2.30;;;;;;;;;;4981272;28;20042;-91
2023/02/04 08:37:46;;;;;;;5.43;2.15;;;;;;;;;;4981542;28;20027;-90
2023/02/04 08:40:12;;;;;;;3.92;1.75;;;;;;;;;;4981462;28;20019;-90
2023/02/04 08:42:38;;;;;;;3.65;1.60;;;;;;;;;;4981420;28;20111;-90
2023/02/04 08:45:04;;;;;;;9.35;3.13;;;;;;;;;;4980334;28;20031;-90
2023/02/04 08:47:31;;;;;;;8.93;3.15;;;;;;;;;;4980403;28;20058;-91
2023/02/04 08:49:57;;;;;;;5.40;3.00;;;;;;;;;;4981021;28;20405;-91
2023/02/04 08:52:23;;;;;;;7.90;3.22;;;;;;;;;;4981576;28;20041;-91
2023/02/04 08:54:49;;;;;;;10.48;5.22;;;;;;;;;;4981154;28;20023;-92
2023/02/04 08:57:15;;;;;;;4.55;2.53;;;;;;;;;;4980135;28;20030;-90
2023/02/04 08:59:41;;;;;;;8.30;4.28;;;;;;;;;;4980004;28;20022;-91
2023/02/04 09:02:08;;;;;;;8.52;3.30;;;;;;;;;;4980075;28;20089;-92
2023/02/04 09:04:34;;;;;;;3.25;1.88;;;;;;;;;;4979864;28;20034;-90
2023/02/04 09:07:00;;;;;;;3.03;1.67;;;;;;;;;;4980090;28;20042;-90
2023/02/04 09:09:26;;;;;;;3.20;1.80;;;;;;;;;;4981301;28;20375;-90
2023/02/04 09:11:52;;;;;;;2.25;1.20;;;;;;;;;;4980958;28;20022;-91
2023/02/04 09:14:19;;;;;;;3.47;1.30;;;;;;;;;;4980826;28;20030;-91
2023/02/04 09:16:45;;;;;;;2.83;1.50;;;;;;;;;;4980433;28;20026;-89
2023/02/04 09:19:14;;;;;;;3.55;1.38;;;;;;;;;;4979816;28;20070;-91
2023/02/04 09:24:57;;;;;;;3.05;2.20;;;;;;;;;;4980536;28;20073;-90
2023/02/04 09:27:23;;;;;;;3.50;2.13;;;;;;;;;;4980807;28;20069;-90
2023/02/04 09:29:49;;;;;;;4.25;2.30;;;;;;;;;;4979450;28;20432;-91
2023/02/04 09:32:15;;;;;;;9.35;4.30;;;;;;;;;;4980486;28;20049;-91
2023/02/04 09:34:42;;;;;;;5.55;3.00;;;;;;;;;;4980567;28;20019;-90
2023/02/04 09:37:08;;;;;;;5.85;2.97;;;;;;;;;;4979609;28;20325;-90
2023/02/04 09:39:34;;;;;;;5.90;3.53;;;;;;;;;;4978690;28;20046;-87
2023/02/04 09:42:00;;;;;;;7.82;3.70;;;;;;;;;;4979273;28;20359;-87
2023/02/04 09:44:27;;;;;;;4.82;2.63;;;;;;;;;;4979275;28;20023;-86
2023/02/04 09:46:58;;;;;;;9.80;4.50;;;;;;;;;;4980302;28;20034;-88
2023/02/04 09:49:25;;;;;;;14.40;5.97;;;;;;;;;;4979176;28;20433;-87
2023/02/04 09:51:51;;;;;;;9.25;4.30;;;;;;;;;;4980079;28;20027;-89
2023/02/04 09:54:18;;;;;;;15.20;6.40;;;;;;;;;;4979030;28;20045;-88
2023/02/04 09:56:45;;;;;;;13.95;6.20;;;;;;;;;;4980204;28;20023;-87
2023/02/04 09:59:19;;;;;;;9.30;4.45;;;;;;;;;;4979969;28;20045;-88
2023/02/04 10:01:55;;;;;;;6.75;4.05;;;;;;;;;;4980024;28;20314;-88
2023/02/04 10:04:22;;;;;;;5.80;3.30;;;;;;;;;;4978988;28;20066;-88
2023/02/04 10:06:48;;;;;;;9.60;4.72;;;;;;;;;;4979798;28;20041;-89
2023/02/04 10:09:15;;;;;;;11.30;5.35;;;;;;;;;;4978730;28;20062;-88
2023/02/04 10:11:42;;;;;;;10.88;5.10;;;;;;;;;;4979524;28;20034;-88
2023/02/04 10:14:20;;;;;;;9.98;5.00;;;;;;;;;;4979752;28;20030;-88
2023/02/04 10:16:50;;;;;;;8.40;4.80;;;;;;;;;;4979406;28;20481;-88
2023/02/04 10:19:16;;;;;;;12.48;5.35;;;;;;;;;;4978666;28;20484;-87
2023/02/04 17:11:57;;;;;;;9.48;5.43;;;;;;;;;;5662579;23;20369;-87
2023/02/04 17:14:23;;;;;;;13.73;5.63;;;;;;;;;;4968970;28;20027;-87
2023/02/04 17:22:22;;;;;;;17.92;8.23;;;;;;;;;;4942207;29;20039;-85
2023/02/04 17:24:48;;;;;;;24.42;11.52;;;;;;;;;;4939148;29;20031;-84
2023/02/04 17:27:14;;;;;;;22.90;11.15;;;;;;;;;;4907332;29;20348;-85
2023/02/04 17:32:44;;;;;;;29.48;14.73;;;;;;;;;;4908602;29;20035;-86
2023/02/04 17:35:11;;;;;;;23.67;10.07;;;;;;;;;;4912636;29;20486;-85
2023/02/04 17:37:37;;;;;;;20.67;10.48;;;;;;;;;;4918425;29;20032;-85
2023/02/04 17:40:03;;;;;;;19.67;11.30;;;;;;;;;;4916340;29;20035;-87
2023/02/04 17:42:29;;;;;;;21.98;10.48;;;;;;;;;;4897048;29;20028;-90
2023/02/04 17:44:55;;;;;;;21.20;10.18;;;;;;;;;;4899147;29;20075;-86
2023/02/04 17:47:21;;;;;;;16.65;8.25;;;;;;;;;;4895024;29;20031;-90
